Terminal Aerodrome Forecast
Issued by NWS

Home | Current Version | Previous Version | Text Only | Print | Product List | Glossary On
Versions: 1 2 3 4 5 6 7 8 9 10 11 12 13 14 15 16 17 18 19 20
000
FTUS45 KCYS 251124
TAFRWL
TAF
KRWL 251124Z 2512/2612 22005KT P6SM SKC
     FM251600 21013G23KT P6SM SCT100 BKN200
     FM260000 23010G15KT P6SM -SHRA BKN050 OVC080=

USA.gov is the U.S. government's official web portal to all federal, state and local government web resources and services.